sensor_id;sensor_type;location;lat;lon;timestamp;P1;durP1;ratioP1;P2;durP2;ratioP2
14092;SDS011;7123;49.468;10.992;2022-12-07T00:01:47;7.20;;;6.50;;
14092;SDS011;7123;49.468;10.992;2022-12-07T00:04:15;7.40;;;6.57;;
14092;SDS011;7123;49.468;10.992;2022-12-07T00:06:44;7.50;;;6.50;;
14092;SDS011;7123;49.468;10.992;2022-12-07T00:09:16;7.07;;;6.27;;
14092;SDS011;7123;49.468;10.992;2022-12-07T00:11:44;7.93;;;6.60;;
14092;SDS011;7123;49.468;10.992;2022-12-07T00:14:14;7.00;;;6.30;;
14092;SDS011;7123;49.468;10.992;2022-12-07T00:16:43;7.67;;;6.67;;
14092;SDS011;7123;49.468;10.992;2022-12-07T00:19:11;7.23;;;6.50;;
14092;SDS011;7123;49.468;10.992;2022-12-07T00:21:39;7.80;;;7.00;;
14092;SDS011;7123;49.468;10.992;2022-12-07T00:24:06;8.30;;;7.23;;
14092;SDS011;7123;49.468;10.992;2022-12-07T00:26:34;8.50;;;7.60;;
14092;SDS011;7123;49.468;10.992;2022-12-07T00:29:03;8.43;;;6.87;;
14092;SDS011;7123;49.468;10.992;2022-12-07T00:31:33;8.97;;;7.23;;
14092;SDS011;7123;49.468;10.992;2022-12-07T00:34:05;8.67;;;7.27;;
14092;SDS011;7123;49.468;10.992;2022-12-07T00:36:33;9.50;;;7.30;;
14092;SDS011;7123;49.468;10.992;2022-12-07T00:39:00;9.40;;;7.30;;
14092;SDS011;7123;49.468;10.992;2022-12-07T00:41:27;9.27;;;7.30;;
14092;SDS011;7123;49.468;10.992;2022-12-07T00:43:55;8.57;;;7.07;;
14092;SDS011;7123;49.468;10.992;2022-12-07T00:46:22;7.90;;;7.07;;
14092;SDS011;7123;49.468;10.992;2022-12-07T00:48:50;8.23;;;7.10;;
14092;SDS011;7123;49.468;10.992;2022-12-07T00:51:18;7.60;;;6.83;;
14092;SDS011;7123;49.468;10.992;2022-12-07T00:53:47;9.07;;;7.53;;
14092;SDS011;7123;49.468;10.992;2022-12-07T00:56:16;7.97;;;6.77;;
14092;SDS011;7123;49.468;10.992;2022-12-07T00:58:51;8.53;;;7.33;;
14092;SDS011;7123;49.468;10.992;2022-12-07T01:01:19;8.77;;;7.27;;
14092;SDS011;7123;49.468;10.992;2022-12-07T01:03:46;9.23;;;6.60;;
14092;SDS011;7123;49.468;10.992;2022-12-07T01:06:14;8.77;;;7.17;;
14092;SDS011;7123;49.468;10.992;2022-12-07T01:08:42;9.60;;;7.20;;
14092;SDS011;7123;49.468;10.992;2022-12-07T01:11:11;10.10;;;7.97;;
14092;SDS011;7123;49.468;10.992;2022-12-07T01:13:39;9.73;;;7.80;;
14092;SDS011;7123;49.468;10.992;2022-12-07T01:16:07;9.27;;;7.50;;
14092;SDS011;7123;49.468;10.992;2022-12-07T01:18:36;9.50;;;7.37;;
14092;SDS011;7123;49.468;10.992;2022-12-07T01:21:07;9.40;;;7.67;;
14092;SDS011;7123;49.468;10.992;2022-12-07T01:23:38;8.47;;;7.40;;
14092;SDS011;7123;49.468;10.992;2022-12-07T01:26:06;10.47;;;8.47;;
14092;SDS011;7123;49.468;10.992;2022-12-07T01:28:36;10.80;;;8.40;;
14092;SDS011;7123;49.468;10.992;2022-12-07T01:31:05;9.30;;;7.67;;
14092;SDS011;7123;49.468;10.992;2022-12-07T01:33:38;10.07;;;7.73;;
14092;SDS011;7123;49.468;10.992;2022-12-07T01:38:34;9.83;;;7.30;;
14092;SDS011;7123;49.468;10.992;2022-12-07T01:41:01;10.10;;;8.13;;
14092;SDS011;7123;49.468;10.992;2022-12-07T01:43:29;12.83;;;8.60;;
14092;SDS011;7123;49.468;10.992;2022-12-07T01:45:57;8.73;;;7.20;;
14092;SDS011;7123;49.468;10.992;2022-12-07T01:48:39;10.90;;;8.17;;
14092;SDS011;7123;49.468;10.992;2022-12-07T01:51:11;9.87;;;7.80;;
14092;SDS011;7123;49.468;10.992;2022-12-07T01:53:42;11.50;;;8.53;;
14092;SDS011;7123;49.468;10.992;2022-12-07T01:56:12;11.50;;;8.07;;
14092;SDS011;7123;49.468;10.992;2022-12-07T01:58:46;11.27;;;8.47;;
14092;SDS011;7123;49.468;10.992;2022-12-07T02:01:15;10.90;;;7.80;;
14092;SDS011;7123;49.468;10.992;2022-12-07T02:03:42;10.37;;;8.10;;
14092;SDS011;7123;49.468;10.992;2022-12-07T02:06:11;10.33;;;7.80;;
14092;SDS011;7123;49.468;10.992;2022-12-07T02:08:42;11.77;;;8.60;;
14092;SDS011;7123;49.468;10.992;2022-12-07T02:11:09;12.50;;;9.13;;
14092;SDS011;7123;49.468;10.992;2022-12-07T02:13:37;10.80;;;8.53;;
14092;SDS011;7123;49.468;10.992;2022-12-07T02:22:40;10.43;;;8.13;;
14092;SDS011;7123;49.468;10.992;2022-12-07T02:28:21;12.37;;;8.80;;
14092;SDS011;7123;49.468;10.992;2022-12-07T02:31:01;12.17;;;9.17;;
14092;SDS011;7123;49.468;10.992;2022-12-07T02:33:36;12.87;;;9.30;;
14092;SDS011;7123;49.468;10.992;2022-12-07T02:36:11;13.37;;;8.93;;
14092;SDS011;7123;49.468;10.992;2022-12-07T02:41:27;13.00;;;9.07;;
14092;SDS011;7123;49.468;10.992;2022-12-07T02:44:17;13.73;;;9.53;;
14092;SDS011;7123;49.468;10.992;2022-12-07T02:46:51;13.37;;;9.53;;
14092;SDS011;7123;49.468;10.992;2022-12-07T02:49:21;15.03;;;9.77;;
14092;SDS011;7123;49.468;10.992;2022-12-07T02:51:50;14.07;;;9.40;;
14092;SDS011;7123;49.468;10.992;2022-12-07T02:54:19;12.37;;;8.87;;
14092;SDS011;7123;49.468;10.992;2022-12-07T02:56:56;12.07;;;9.13;;
14092;SDS011;7123;49.468;10.992;2022-12-07T03:05:15;15.50;;;9.97;;
14092;SDS011;7123;49.468;10.992;2022-12-07T03:08:02;14.97;;;9.77;;
14092;SDS011;7123;49.468;10.992;2022-12-07T03:13:33;14.40;;;10.10;;
14092;SDS011;7123;49.468;10.992;2022-12-07T03:19:13;12.97;;;9.33;;
14092;SDS011;7123;49.468;10.992;2022-12-07T03:21:47;12.33;;;9.13;;
14092;SDS011;7123;49.468;10.992;2022-12-07T03:24:21;14.17;;;9.70;;
14092;SDS011;7123;49.468;10.992;2022-12-07T03:26:54;14.47;;;9.60;;
14092;SDS011;7123;49.468;10.992;2022-12-07T03:29:56;13.13;;;9.63;;
14092;SDS011;7123;49.468;10.992;2022-12-07T03:32:35;13.33;;;9.80;;
14092;SDS011;7123;49.468;10.992;2022-12-07T03:40:22;12.80;;;9.60;;
14092;SDS011;7123;49.468;10.992;2022-12-07T03:42:59;15.03;;;10.30;;
14092;SDS011;7123;49.468;10.992;2022-12-07T03:45:31;15.20;;;9.83;;
14092;SDS011;7123;49.468;10.992;2022-12-07T03:50:59;13.33;;;9.70;;
14092;SDS011;7123;49.468;10.992;2022-12-07T03:53:48;12.37;;;9.20;;
14092;SDS011;7123;49.468;10.992;2022-12-07T03:56:24;13.63;;;9.47;;
14092;SDS011;7123;49.468;10.992;2022-12-07T03:58:53;13.57;;;9.37;;
14092;SDS011;7123;49.468;10.992;2022-12-07T04:01:20;12.40;;;9.40;;
14092;SDS011;7123;49.468;10.992;2022-12-07T04:03:49;11.17;;;8.57;;
14092;SDS011;7123;49.468;10.992;2022-12-07T04:06:16;13.07;;;9.00;;
14092;SDS011;7123;49.468;10.992;2022-12-07T04:08:43;12.93;;;9.60;;
14092;SDS011;7123;49.468;10.992;2022-12-07T04:11:09;12.67;;;9.57;;
14092;SDS011;7123;49.468;10.992;2022-12-07T04:13:36;12.87;;;9.23;;
14092;SDS011;7123;49.468;10.992;2022-12-07T04:16:23;14.27;;;9.10;;
14092;SDS011;7123;49.468;10.992;2022-12-07T04:18:49;13.23;;;9.73;;
14092;SDS011;7123;49.468;10.992;2022-12-07T04:21:16;14.00;;;10.23;;
14092;SDS011;7123;49.468;10.992;2022-12-07T04:23:43;16.37;;;9.57;;
14092;SDS011;7123;49.468;10.992;2022-12-07T04:26:10;11.77;;;9.27;;
14092;SDS011;7123;49.468;10.992;2022-12-07T04:28:36;12.73;;;9.83;;
14092;SDS011;7123;49.468;10.992;2022-12-07T04:31:03;15.97;;;10.60;;
14092;SDS011;7123;49.468;10.992;2022-12-07T04:33:30;15.03;;;10.70;;
14092;SDS011;7123;49.468;10.992;2022-12-07T04:35:57;16.00;;;10.80;;
14092;SDS011;7123;49.468;10.992;2022-12-07T04:38:23;15.07;;;10.10;;
14092;SDS011;7123;49.468;10.992;2022-12-07T04:40:50;15.83;;;10.57;;
14092;SDS011;7123;49.468;10.992;2022-12-07T04:43:17;15.10;;;10.80;;
14092;SDS011;7123;49.468;10.992;2022-12-07T04:45:49;15.43;;;10.40;;
14092;SDS011;7123;49.468;10.992;2022-12-07T04:48:17;13.63;;;9.53;;
14092;SDS011;7123;49.468;10.992;2022-12-07T04:50:43;19.53;;;11.00;;
14092;SDS011;7123;49.468;10.992;2022-12-07T04:53:11;14.43;;;10.33;;
14092;SDS011;7123;49.468;10.992;2022-12-07T04:55:38;15.90;;;10.87;;
14092;SDS011;7123;49.468;10.992;2022-12-07T04:58:06;16.23;;;10.67;;
14092;SDS011;7123;49.468;10.992;2022-12-07T05:00:32;17.73;;;10.87;;
14092;SDS011;7123;49.468;10.992;2022-12-07T05:02:59;16.00;;;10.00;;
14092;SDS011;7123;49.468;10.992;2022-12-07T05:05:26;14.03;;;9.97;;
14092;SDS011;7123;49.468;10.992;2022-12-07T05:07:53;17.07;;;11.33;;
14092;SDS011;7123;49.468;10.992;2022-12-07T05:10:20;17.83;;;11.27;;
14092;SDS011;7123;49.468;10.992;2022-12-07T05:12:47;16.90;;;11.53;;
14092;SDS011;7123;49.468;10.992;2022-12-07T05:15:14;16.37;;;11.30;;
14092;SDS011;7123;49.468;10.992;2022-12-07T05:17:41;16.70;;;11.20;;
14092;SDS011;7123;49.468;10.992;2022-12-07T05:20:08;17.60;;;11.83;;
14092;SDS011;7123;49.468;10.992;2022-12-07T05:22:35;16.63;;;11.57;;
14092;SDS011;7123;49.468;10.992;2022-12-07T05:25:02;17.07;;;11.10;;
14092;SDS011;7123;49.468;10.992;2022-12-07T05:27:29;17.27;;;11.97;;
14092;SDS011;7123;49.468;10.992;2022-12-07T05:29:55;19.00;;;11.13;;
14092;SDS011;7123;49.468;10.992;2022-12-07T05:32:22;16.47;;;11.83;;
14092;SDS011;7123;49.468;10.992;2022-12-07T05:34:49;16.93;;;11.37;;
14092;SDS011;7123;49.468;10.992;2022-12-07T05:37:15;16.23;;;11.13;;
14092;SDS011;7123;49.468;10.992;2022-12-07T05:39:42;19.67;;;12.27;;
14092;SDS011;7123;49.468;10.992;2022-12-07T05:42:10;19.53;;;12.43;;
14092;SDS011;7123;49.468;10.992;2022-12-07T05:44:43;21.20;;;13.30;;
14092;SDS011;7123;49.468;10.992;2022-12-07T05:47:12;19.43;;;11.80;;
14092;SDS011;7123;49.468;10.992;2022-12-07T05:49:40;18.37;;;12.07;;
14092;SDS011;7123;49.468;10.992;2022-12-07T05:52:07;18.50;;;12.37;;
14092;SDS011;7123;49.468;10.992;2022-12-07T05:54:33;19.90;;;12.37;;
14092;SDS011;7123;49.468;10.992;2022-12-07T05:57:00;19.77;;;12.23;;
14092;SDS011;7123;49.468;10.992;2022-12-07T05:59:27;19.23;;;12.13;;
14092;SDS011;7123;49.468;10.992;2022-12-07T06:01:55;18.03;;;12.07;;
14092;SDS011;7123;49.468;10.992;2022-12-07T06:04:28;20.23;;;12.43;;
14092;SDS011;7123;49.468;10.992;2022-12-07T06:06:56;18.97;;;12.77;;
14092;SDS011;7123;49.468;10.992;2022-12-07T06:09:24;19.57;;;12.07;;
14092;SDS011;7123;49.468;10.992;2022-12-07T06:11:52;17.93;;;11.97;;
14092;SDS011;7123;49.468;10.992;2022-12-07T06:14:37;19.20;;;12.10;;
14092;SDS011;7123;49.468;10.992;2022-12-07T06:17:05;18.43;;;11.97;;
14092;SDS011;7123;49.468;10.992;2022-12-07T06:19:32;19.07;;;12.93;;
14092;SDS011;7123;49.468;10.992;2022-12-07T06:21:59;20.43;;;13.03;;
14092;SDS011;7123;49.468;10.992;2022-12-07T06:24:26;18.77;;;12.37;;
14092;SDS011;7123;49.468;10.992;2022-12-07T06:26:52;21.70;;;13.33;;
14092;SDS011;7123;49.468;10.992;2022-12-07T06:29:19;17.33;;;11.77;;
14092;SDS011;7123;49.468;10.992;2022-12-07T06:31:46;18.30;;;12.37;;
14092;SDS011;7123;49.468;10.992;2022-12-07T06:34:13;15.63;;;11.63;;
14092;SDS011;7123;49.468;10.992;2022-12-07T06:36:42;18.67;;;11.67;;
14092;SDS011;7123;49.468;10.992;2022-12-07T06:39:08;20.07;;;12.70;;
14092;SDS011;7123;49.468;10.992;2022-12-07T06:41:36;18.17;;;11.90;;
14092;SDS011;7123;49.468;10.992;2022-12-07T06:44:04;18.37;;;12.23;;
14092;SDS011;7123;49.468;10.992;2022-12-07T06:46:31;18.73;;;12.03;;
14092;SDS011;7123;49.468;10.992;2022-12-07T06:48:59;16.50;;;11.10;;
14092;SDS011;7123;49.468;10.992;2022-12-07T06:51:26;16.30;;;11.70;;
14092;SDS011;7123;49.468;10.992;2022-12-07T06:53:52;22.60;;;12.27;;
14092;SDS011;7123;49.468;10.992;2022-12-07T06:56:19;19.37;;;11.90;;
14092;SDS011;7123;49.468;10.992;2022-12-07T06:58:46;17.57;;;10.67;;
14092;SDS011;7123;49.468;10.992;2022-12-07T07:01:13;21.53;;;12.20;;
14092;SDS011;7123;49.468;10.992;2022-12-07T07:03:43;15.53;;;11.60;;
14092;SDS011;7123;49.468;10.992;2022-12-07T07:06:11;20.37;;;12.53;;
14092;SDS011;7123;49.468;10.992;2022-12-07T07:08:39;18.60;;;11.57;;
14092;SDS011;7123;49.468;10.992;2022-12-07T07:11:06;16.77;;;11.20;;
14092;SDS011;7123;49.468;10.992;2022-12-07T07:13:34;20.07;;;11.67;;
14092;SDS011;7123;49.468;10.992;2022-12-07T07:16:01;20.03;;;11.43;;
14092;SDS011;7123;49.468;10.992;2022-12-07T07:18:28;16.37;;;11.50;;
14092;SDS011;7123;49.468;10.992;2022-12-07T07:20:55;19.20;;;12.30;;
14092;SDS011;7123;49.468;10.992;2022-12-07T07:23:23;17.70;;;11.80;;
14092;SDS011;7123;49.468;10.992;2022-12-07T07:25:50;21.20;;;13.07;;
14092;SDS011;7123;49.468;10.992;2022-12-07T07:28:17;19.83;;;12.37;;
14092;SDS011;7123;49.468;10.992;2022-12-07T07:30:45;20.20;;;12.40;;
14092;SDS011;7123;49.468;10.992;2022-12-07T07:33:11;19.90;;;12.60;;
14092;SDS011;7123;49.468;10.992;2022-12-07T07:35:39;18.83;;;12.13;;
14092;SDS011;7123;49.468;10.992;2022-12-07T07:38:05;20.50;;;12.70;;
14092;SDS011;7123;49.468;10.992;2022-12-07T07:40:33;24.03;;;13.63;;
14092;SDS011;7123;49.468;10.992;2022-12-07T07:42:59;20.80;;;12.37;;
14092;SDS011;7123;49.468;10.992;2022-12-07T07:45:26;19.37;;;13.07;;
14092;SDS011;7123;49.468;10.992;2022-12-07T07:47:54;20.20;;;12.63;;
14092;SDS011;7123;49.468;10.992;2022-12-07T07:50:20;21.07;;;13.27;;
14092;SDS011;7123;49.468;10.992;2022-12-07T07:52:47;19.80;;;12.20;;
14092;SDS011;7123;49.468;10.992;2022-12-07T07:55:14;23.63;;;12.53;;
14092;SDS011;7123;49.468;10.992;2022-12-07T07:57:41;27.47;;;13.17;;
14092;SDS011;7123;49.468;10.992;2022-12-07T08:00:09;21.20;;;12.53;;
14092;SDS011;7123;49.468;10.992;2022-12-07T08:02:38;21.10;;;12.60;;
14092;SDS011;7123;49.468;10.992;2022-12-07T08:05:05;19.90;;;12.80;;
14092;SDS011;7123;49.468;10.992;2022-12-07T08:07:33;22.50;;;12.90;;
14092;SDS011;7123;49.468;10.992;2022-12-07T08:10:00;18.73;;;11.97;;
14092;SDS011;7123;49.468;10.992;2022-12-07T08:12:27;18.17;;;11.57;;
14092;SDS011;7123;49.468;10.992;2022-12-07T08:14:53;24.00;;;12.47;;
14092;SDS011;7123;49.468;10.992;2022-12-07T08:17:20;16.63;;;11.43;;
14092;SDS011;7123;49.468;10.992;2022-12-07T08:19:47;19.57;;;12.50;;
14092;SDS011;7123;49.468;10.992;2022-12-07T08:22:14;19.53;;;12.27;;
14092;SDS011;7123;49.468;10.992;2022-12-07T08:24:40;20.73;;;12.03;;
14092;SDS011;7123;49.468;10.992;2022-12-07T08:27:07;17.03;;;10.97;;
14092;SDS011;7123;49.468;10.992;2022-12-07T08:29:34;20.13;;;11.97;;
14092;SDS011;7123;49.468;10.992;2022-12-07T08:32:00;19.03;;;11.93;;
14092;SDS011;7123;49.468;10.992;2022-12-07T08:34:34;15.73;;;10.83;;
14092;SDS011;7123;49.468;10.992;2022-12-07T08:37:01;20.43;;;11.60;;
14092;SDS011;7123;49.468;10.992;2022-12-07T08:39:29;20.70;;;11.33;;
14092;SDS011;7123;49.468;10.992;2022-12-07T08:41:57;14.33;;;8.87;;
14092;SDS011;7123;49.468;10.992;2022-12-07T08:44:24;18.37;;;10.17;;
14092;SDS011;7123;49.468;10.992;2022-12-07T08:46:55;18.33;;;10.57;;
14092;SDS011;7123;49.468;10.992;2022-12-07T08:49:38;15.50;;;9.67;;
14092;SDS011;7123;49.468;10.992;2022-12-07T08:52:07;17.87;;;10.70;;
14092;SDS011;7123;49.468;10.992;2022-12-07T08:54:34;16.87;;;9.67;;
14092;SDS011;7123;49.468;10.992;2022-12-07T08:57:04;16.07;;;10.73;;
14092;SDS011;7123;49.468;10.992;2022-12-07T08:59:32;16.33;;;10.37;;
14092;SDS011;7123;49.468;10.992;2022-12-07T09:02:01;15.57;;;10.53;;
14092;SDS011;7123;49.468;10.992;2022-12-07T09:04:27;17.20;;;10.23;;
14092;SDS011;7123;49.468;10.992;2022-12-07T09:06:54;16.67;;;10.40;;
14092;SDS011;7123;49.468;10.992;2022-12-07T09:09:21;14.73;;;9.47;;
14092;SDS011;7123;49.468;10.992;2022-12-07T09:11:48;17.27;;;9.80;;
14092;SDS011;7123;49.468;10.992;2022-12-07T09:14:15;17.93;;;10.47;;
14092;SDS011;7123;49.468;10.992;2022-12-07T09:16:41;16.03;;;10.90;;
14092;SDS011;7123;49.468;10.992;2022-12-07T09:19:08;13.83;;;9.13;;
14092;SDS011;7123;49.468;10.992;2022-12-07T09:21:35;15.53;;;9.93;;
14092;SDS011;7123;49.468;10.992;2022-12-07T09:24:01;15.53;;;9.63;;
14092;SDS011;7123;49.468;10.992;2022-12-07T09:26:28;18.07;;;10.10;;
14092;SDS011;7123;49.468;10.992;2022-12-07T09:28:55;18.50;;;9.93;;
14092;SDS011;7123;49.468;10.992;2022-12-07T09:31:21;14.30;;;9.63;;
14092;SDS011;7123;49.468;10.992;2022-12-07T09:33:54;14.03;;;8.90;;
14092;SDS011;7123;49.468;10.992;2022-12-07T09:36:26;15.37;;;9.40;;
14092;SDS011;7123;49.468;10.992;2022-12-07T09:38:54;15.23;;;9.53;;
14092;SDS011;7123;49.468;10.992;2022-12-07T09:41:22;17.27;;;9.40;;
14092;SDS011;7123;49.468;10.992;2022-12-07T09:43:51;15.80;;;10.17;;
14092;SDS011;7123;49.468;10.992;2022-12-07T09:46:19;17.07;;;10.40;;
14092;SDS011;7123;49.468;10.992;2022-12-07T09:48:47;14.30;;;8.70;;
14092;SDS011;7123;49.468;10.992;2022-12-07T09:51:17;15.20;;;9.93;;
14092;SDS011;7123;49.468;10.992;2022-12-07T09:53:51;14.23;;;9.40;;
14092;SDS011;7123;49.468;10.992;2022-12-07T09:56:20;14.57;;;8.90;;
14092;SDS011;7123;49.468;10.992;2022-12-07T09:58:48;12.83;;;8.53;;
14092;SDS011;7123;49.468;10.992;2022-12-07T10:01:18;12.17;;;8.47;;
14092;SDS011;7123;49.468;10.992;2022-12-07T10:03:50;18.60;;;9.70;;
14092;SDS011;7123;49.468;10.992;2022-12-07T10:06:24;14.77;;;9.23;;
14092;SDS011;7123;49.468;10.992;2022-12-07T10:08:50;13.67;;;9.17;;
14092;SDS011;7123;49.468;10.992;2022-12-07T10:11:17;13.73;;;9.27;;
14092;SDS011;7123;49.468;10.992;2022-12-07T10:13:45;13.70;;;9.30;;
14092;SDS011;7123;49.468;10.992;2022-12-07T10:18:51;15.07;;;9.53;;
14092;SDS011;7123;49.468;10.992;2022-12-07T10:21:25;16.23;;;8.80;;
14092;SDS011;7123;49.468;10.992;2022-12-07T10:23:59;12.73;;;8.67;;
14092;SDS011;7123;49.468;10.992;2022-12-07T10:26:28;15.17;;;9.57;;
14092;SDS011;7123;49.468;10.992;2022-12-07T10:32:02;13.40;;;9.20;;
14092;SDS011;7123;49.468;10.992;2022-12-07T10:39:55;13.60;;;8.80;;
14092;SDS011;7123;49.468;10.992;2022-12-07T10:42:24;17.60;;;8.73;;
14092;SDS011;7123;49.468;10.992;2022-12-07T10:53:17;13.30;;;8.77;;
14092;SDS011;7123;49.468;10.992;2022-12-07T11:09:41;14.93;;;9.53;;
14092;SDS011;7123;49.468;10.992;2022-12-07T11:21:20;16.17;;;10.50;;
14092;SDS011;7123;49.468;10.992;2022-12-07T11:24:01;14.73;;;9.43;;
14092;SDS011;7123;49.468;10.992;2022-12-07T11:32:22;15.43;;;9.97;;
14092;SDS011;7123;49.468;10.992;2022-12-07T11:38:49;14.63;;;10.23;;
14092;SDS011;7123;49.468;10.992;2022-12-07T11:40:56;14.93;;;10.33;;
14092;SDS011;7123;49.468;10.992;2022-12-07T11:43:42;13.03;;;9.40;;
14092;SDS011;7123;49.468;10.992;2022-12-07T11:46:25;12.23;;;9.37;;
14092;SDS011;7123;49.468;10.992;2022-12-07T11:51:59;14.83;;;9.33;;
14092;SDS011;7123;49.468;10.992;2022-12-07T11:54:32;15.90;;;9.43;;
14092;SDS011;7123;49.468;10.992;2022-12-07T11:57:10;15.23;;;10.53;;
14092;SDS011;7123;49.468;10.992;2022-12-07T11:59:56;12.97;;;9.40;;
14092;SDS011;7123;49.468;10.992;2022-12-07T12:02:37;13.17;;;9.73;;
14092;SDS011;7123;49.468;10.992;2022-12-07T12:05:18;13.10;;;9.57;;
14092;SDS011;7123;49.468;10.992;2022-12-07T12:07:50;14.27;;;9.83;;
14092;SDS011;7123;49.468;10.992;2022-12-07T12:22:00;12.90;;;8.83;;
14092;SDS011;7123;49.468;10.992;2022-12-07T12:24:36;13.17;;;9.20;;
14092;SDS011;7123;49.468;10.992;2022-12-07T12:27:06;12.17;;;9.17;;
14092;SDS011;7123;49.468;10.992;2022-12-07T12:29:36;11.83;;;8.67;;
14092;SDS011;7123;49.468;10.992;2022-12-07T12:32:17;16.17;;;9.00;;
14092;SDS011;7123;49.468;10.992;2022-12-07T12:42:48;13.80;;;9.67;;
14092;SDS011;7123;49.468;10.992;2022-12-07T12:45:18;12.97;;;9.43;;
14092;SDS011;7123;49.468;10.992;2022-12-07T12:48:09;11.77;;;9.20;;
14092;SDS011;7123;49.468;10.992;2022-12-07T12:54:05;17.83;;;9.70;;
14092;SDS011;7123;49.468;10.992;2022-12-07T12:56:42;12.93;;;8.80;;
14092;SDS011;7123;49.468;10.992;2022-12-07T12:59:29;12.77;;;9.17;;
14092;SDS011;7123;49.468;10.992;2022-12-07T13:07:55;12.00;;;8.57;;
14092;SDS011;7123;49.468;10.992;2022-12-07T13:15:34;10.90;;;8.43;;
14092;SDS011;7123;49.468;10.992;2022-12-07T13:21:00;11.43;;;7.60;;
14092;SDS011;7123;49.468;10.992;2022-12-07T13:23:29;9.80;;;7.47;;
14092;SDS011;7123;49.468;10.992;2022-12-07T13:26:09;10.10;;;7.53;;
14092;SDS011;7123;49.468;10.992;2022-12-07T13:29:29;11.57;;;8.57;;
14092;SDS011;7123;49.468;10.992;2022-12-07T13:31:34;11.40;;;7.90;;
14092;SDS011;7123;49.468;10.992;2022-12-07T13:34:05;10.67;;;7.77;;
14092;SDS011;7123;49.468;10.992;2022-12-07T13:37:10;10.93;;;8.00;;
14092;SDS011;7123;49.468;10.992;2022-12-07T13:39:56;11.50;;;8.03;;
14092;SDS011;7123;49.468;10.992;2022-12-07T13:42:26;12.77;;;9.10;;
14092;SDS011;7123;49.468;10.992;2022-12-07T13:44:53;15.57;;;8.77;;
14092;SDS011;7123;49.468;10.992;2022-12-07T13:49:56;10.70;;;8.20;;
14092;SDS011;7123;49.468;10.992;2022-12-07T13:52:32;10.83;;;8.40;;
14092;SDS011;7123;49.468;10.992;2022-12-07T13:55:14;9.83;;;7.83;;
14092;SDS011;7123;49.468;10.992;2022-12-07T13:57:43;11.63;;;7.93;;
14092;SDS011;7123;49.468;10.992;2022-12-07T14:00:15;15.17;;;8.63;;
14092;SDS011;7123;49.468;10.992;2022-12-07T14:03:03;13.10;;;8.63;;
14092;SDS011;7123;49.468;10.992;2022-12-07T14:05:46;15.07;;;8.20;;
14092;SDS011;7123;49.468;10.992;2022-12-07T14:08:29;10.23;;;7.77;;
14092;SDS011;7123;49.468;10.992;2022-12-07T14:10:57;11.93;;;8.87;;
14092;SDS011;7123;49.468;10.992;2022-12-07T14:16:00;11.70;;;8.30;;
14092;SDS011;7123;49.468;10.992;2022-12-07T14:18:38;12.17;;;8.50;;
14092;SDS011;7123;49.468;10.992;2022-12-07T14:21:14;10.23;;;8.07;;
14092;SDS011;7123;49.468;10.992;2022-12-07T14:26:49;12.87;;;7.77;;
14092;SDS011;7123;49.468;10.992;2022-12-07T14:31:53;13.40;;;8.73;;
14092;SDS011;7123;49.468;10.992;2022-12-07T14:34:21;11.83;;;8.43;;
14092;SDS011;7123;49.468;10.992;2022-12-07T14:36:48;11.77;;;7.90;;
14092;SDS011;7123;49.468;10.992;2022-12-07T14:39:15;12.97;;;8.03;;
14092;SDS011;7123;49.468;10.992;2022-12-07T14:41:45;9.90;;;7.67;;
14092;SDS011;7123;49.468;10.992;2022-12-07T14:44:27;8.57;;;6.17;;
14092;SDS011;7123;49.468;10.992;2022-12-07T14:47:01;9.33;;;7.00;;
14092;SDS011;7123;49.468;10.992;2022-12-07T14:49:47;11.73;;;6.63;;
14092;SDS011;7123;49.468;10.992;2022-12-07T14:52:16;10.13;;;7.33;;
14092;SDS011;7123;49.468;10.992;2022-12-07T14:55:41;10.70;;;8.20;;
14092;SDS011;7123;49.468;10.992;2022-12-07T14:58:00;12.07;;;8.27;;
14092;SDS011;7123;49.468;10.992;2022-12-07T15:00:27;13.70;;;8.73;;
14092;SDS011;7123;49.468;10.992;2022-12-07T15:02:55;11.83;;;8.60;;
14092;SDS011;7123;49.468;10.992;2022-12-07T15:05:22;13.37;;;8.73;;
14092;SDS011;7123;49.468;10.992;2022-12-07T15:07:50;16.03;;;10.37;;
14092;SDS011;7123;49.468;10.992;2022-12-07T15:12:50;15.13;;;9.13;;
14092;SDS011;7123;49.468;10.992;2022-12-07T15:15:17;15.17;;;8.87;;
14092;SDS011;7123;49.468;10.992;2022-12-07T15:17:43;14.10;;;10.10;;
14092;SDS011;7123;49.468;10.992;2022-12-07T15:20:11;13.67;;;9.83;;
14092;SDS011;7123;49.468;10.992;2022-12-07T15:22:40;16.30;;;9.87;;
14092;SDS011;7123;49.468;10.992;2022-12-07T15:25:08;15.13;;;9.93;;
14092;SDS011;7123;49.468;10.992;2022-12-07T15:27:38;14.77;;;10.03;;
14092;SDS011;7123;49.468;10.992;2022-12-07T15:30:05;15.57;;;10.43;;
14092;SDS011;7123;49.468;10.992;2022-12-07T15:32:32;18.43;;;10.57;;
14092;SDS011;7123;49.468;10.992;2022-12-07T15:34:59;13.47;;;9.87;;
14092;SDS011;7123;49.468;10.992;2022-12-07T15:37:26;14.63;;;9.43;;
14092;SDS011;7123;49.468;10.992;2022-12-07T15:39:53;14.30;;;10.23;;
14092;SDS011;7123;49.468;10.992;2022-12-07T15:42:19;17.50;;;10.60;;
14092;SDS011;7123;49.468;10.992;2022-12-07T15:44:46;16.10;;;10.97;;
14092;SDS011;7123;49.468;10.992;2022-12-07T15:47:36;14.23;;;9.87;;
14092;SDS011;7123;49.468;10.992;2022-12-07T15:50:25;14.37;;;9.97;;
14092;SDS011;7123;49.468;10.992;2022-12-07T15:52:52;14.77;;;10.27;;
14092;SDS011;7123;49.468;10.992;2022-12-07T15:55:18;20.77;;;11.53;;
14092;SDS011;7123;49.468;10.992;2022-12-07T15:57:45;18.83;;;11.33;;
14092;SDS011;7123;49.468;10.992;2022-12-07T16:00:12;17.57;;;10.63;;
14092;SDS011;7123;49.468;10.992;2022-12-07T16:02:39;18.00;;;10.77;;
14092;SDS011;7123;49.468;10.992;2022-12-07T16:05:06;16.27;;;10.57;;
14092;SDS011;7123;49.468;10.992;2022-12-07T16:07:33;16.53;;;9.90;;
14092;SDS011;7123;49.468;10.992;2022-12-07T16:10:00;16.13;;;10.70;;
14092;SDS011;7123;49.468;10.992;2022-12-07T16:12:26;13.00;;;10.30;;
14092;SDS011;7123;49.468;10.992;2022-12-07T16:14:53;15.83;;;10.43;;
14092;SDS011;7123;49.468;10.992;2022-12-07T16:17:20;14.37;;;10.13;;
14092;SDS011;7123;49.468;10.992;2022-12-07T16:19:46;15.43;;;10.57;;
14092;SDS011;7123;49.468;10.992;2022-12-07T16:22:13;17.53;;;10.77;;
14092;SDS011;7123;49.468;10.992;2022-12-07T16:24:40;15.87;;;9.93;;
14092;SDS011;7123;49.468;10.992;2022-12-07T16:27:07;16.17;;;10.37;;
14092;SDS011;7123;49.468;10.992;2022-12-07T16:29:34;15.50;;;10.83;;
14092;SDS011;7123;49.468;10.992;2022-12-07T16:32:00;17.00;;;10.20;;
14092;SDS011;7123;49.468;10.992;2022-12-07T16:34:27;18.97;;;10.80;;
14092;SDS011;7123;49.468;10.992;2022-12-07T16:36:54;17.13;;;11.60;;
14092;SDS011;7123;49.468;10.992;2022-12-07T16:39:29;15.63;;;10.43;;
14092;SDS011;7123;49.468;10.992;2022-12-07T16:41:55;18.90;;;12.50;;
14092;SDS011;7123;49.468;10.992;2022-12-07T16:44:22;18.40;;;12.07;;
14092;SDS011;7123;49.468;10.992;2022-12-07T16:46:49;16.40;;;11.13;;
14092;SDS011;7123;49.468;10.992;2022-12-07T16:49:16;17.53;;;11.33;;
14092;SDS011;7123;49.468;10.992;2022-12-07T16:51:44;15.73;;;11.43;;
14092;SDS011;7123;49.468;10.992;2022-12-07T16:54:12;16.17;;;10.50;;
14092;SDS011;7123;49.468;10.992;2022-12-07T16:56:39;17.80;;;11.53;;
14092;SDS011;7123;49.468;10.992;2022-12-07T16:59:06;19.13;;;12.13;;
14092;SDS011;7123;49.468;10.992;2022-12-07T17:01:33;18.53;;;11.83;;
14092;SDS011;7123;49.468;10.992;2022-12-07T17:04:00;17.60;;;11.73;;
14092;SDS011;7123;49.468;10.992;2022-12-07T17:06:27;17.23;;;11.40;;
14092;SDS011;7123;49.468;10.992;2022-12-07T17:08:55;19.03;;;12.30;;